createdAt,value
2023-08-29T00:00:26.457Z,0.02
2023-08-29T00:01:26.599Z,0.00
2023-08-29T00:02:25.692Z,0.00
2023-08-29T00:03:25.867Z,0.00
2023-08-29T00:04:25.963Z,0.00
2023-08-29T00:05:26.149Z,0.00
2023-08-29T00:06:26.332Z,0.00
2023-08-29T00:07:26.470Z,0.02
2023-08-29T00:08:25.599Z,0.02
2023-08-29T00:09:25.819Z,0.00
2023-08-29T00:10:25.990Z,0.02
2023-08-29T00:11:26.157Z,0.02
2023-08-29T00:12:26.403Z,0.02
2023-08-29T00:13:25.465Z,0.00
2023-08-29T00:14:25.661Z,0.00
2023-08-29T00:15:25.800Z,0.02
2023-08-29T00:16:26.048Z,0.00
2023-08-29T00:17:26.136Z,0.00
2023-08-29T00:18:26.264Z,0.02
2023-08-29T00:19:25.452Z,0.00
2023-08-29T00:20:25.552Z,0.00
2023-08-29T00:21:25.725Z,0.02
2023-08-29T00:22:25.875Z,0.00
2023-08-29T00:23:26.105Z,0.00
2023-08-29T00:24:26.147Z,0.02
2023-08-29T00:25:25.262Z,0.00
2023-08-29T00:26:25.453Z,0.00
2023-08-29T00:27:25.681Z,0.00
2023-08-29T00:28:25.791Z,0.02
2023-08-29T00:29:25.963Z,0.02
2023-08-29T00:30:26.122Z,0.00
2023-08-29T00:31:25.271Z,0.02
2023-08-29T00:32:25.484Z,0.00
2023-08-29T00:33:25.627Z,0.02
2023-08-29T00:34:25.756Z,0.02
2023-08-29T00:35:25.917Z,0.02
2023-08-29T00:36:26.985Z,0.02
2023-08-29T00:37:25.139Z,0.02
2023-08-29T00:38:25.288Z,0.00
2023-08-29T00:39:25.488Z,0.00
2023-08-29T00:40:26.568Z,0.00
2023-08-29T00:41:25.742Z,0.00
2023-08-29T00:42:25.907Z,0.00
2023-08-29T00:43:26.023Z,0.00
2023-08-29T00:44:25.155Z,0.00
2023-08-29T00:45:25.304Z,0.00
2023-08-29T00:46:25.500Z,0.00
2023-08-29T00:47:25.637Z,0.02
2023-08-29T00:48:25.767Z,0.02
2023-08-29T00:49:25.882Z,0.00
2023-08-29T00:50:25.022Z,0.02
2023-08-29T00:51:25.129Z,0.00
2023-08-29T00:52:25.263Z,0.02
2023-08-29T00:53:25.439Z,0.00
2023-08-29T00:54:25.583Z,0.00
2023-08-29T00:55:25.704Z,0.02
2023-08-29T00:56:25.849Z,0.02
2023-08-29T00:57:24.942Z,0.00
2023-08-29T00:58:25.169Z,0.02
2023-08-29T00:59:25.291Z,0.00
2023-08-29T01:00:25.457Z,0.02
2023-08-29T01:01:25.635Z,0.00
2023-08-29T01:02:25.822Z,0.00
2023-08-29T01:03:25.018Z,0.02
2023-08-29T01:04:25.101Z,0.00
2023-08-29T01:05:25.263Z,0.02
2023-08-29T01:06:25.422Z,0.00
2023-08-29T01:07:25.593Z,0.00
2023-08-29T01:08:24.874Z,0.00
2023-08-29T01:09:24.922Z,0.02
2023-08-29T01:10:25.122Z,0.00
2023-08-29T01:11:25.272Z,0.02
2023-08-29T01:12:25.456Z,0.00
2023-08-29T01:13:25.562Z,0.02
2023-08-29T01:14:25.722Z,0.00
2023-08-29T01:15:24.933Z,0.00
2023-08-29T01:16:25.187Z,0.02
2023-08-29T01:17:25.252Z,0.00
2023-08-29T01:18:25.402Z,0.00
2023-08-29T01:19:25.549Z,0.00
2023-08-29T01:20:24.657Z,0.02
2023-08-29T01:21:24.870Z,0.00
2023-08-29T01:22:24.964Z,0.02
2023-08-29T01:23:25.117Z,0.00
2023-08-29T01:24:25.317Z,0.00
2023-08-29T01:25:25.453Z,0.00
2023-08-29T01:26:24.599Z,0.02
2023-08-29T01:27:24.796Z,0.00
2023-08-29T01:28:24.983Z,0.00
2023-08-29T01:29:25.186Z,0.00
2023-08-29T01:30:25.297Z,0.00
2023-08-29T01:31:24.448Z,0.00
2023-08-29T01:32:24.636Z,0.02
2023-08-29T01:33:24.816Z,0.02
2023-08-29T01:34:24.995Z,0.00
2023-08-29T01:35:25.228Z,0.00
2023-08-29T01:36:25.322Z,0.00
2023-08-29T01:37:24.454Z,0.00
2023-08-29T01:38:24.668Z,0.02
2023-08-29T01:39:24.832Z,0.02
2023-08-29T01:40:25.040Z,0.00
2023-08-29T01:41:25.176Z,0.00
2023-08-29T01:42:24.314Z,0.02
2023-08-29T01:43:24.497Z,0.02
2023-08-29T01:44:24.678Z,0.00
2023-08-29T01:45:25.053Z,0.00
2023-08-29T01:46:25.207Z,0.00
2023-08-29T01:47:25.266Z,0.00
2023-08-29T01:48:24.297Z,0.02
2023-08-29T01:49:24.478Z,0.00
2023-08-29T01:50:24.694Z,0.02
2023-08-29T01:51:24.791Z,0.00
2023-08-29T01:52:24.939Z,0.02
2023-08-29T01:53:25.064Z,0.02
2023-08-29T01:54:24.199Z,0.00
2023-08-29T01:55:25.306Z,0.00
2023-08-29T01:56:24.582Z,0.00
2023-08-29T01:57:24.724Z,0.02
2023-08-29T01:58:24.895Z,0.02
2023-08-29T01:59:24.134Z,0.00
2023-08-29T02:00:24.257Z,0.00
2023-08-29T02:01:24.586Z,0.06
2023-08-29T02:02:24.681Z,0.00
2023-08-29T02:03:25.321Z,0.02
2023-08-29T02:04:24.025Z,0.00
2023-08-29T02:05:24.109Z,0.00
2023-08-29T02:06:25.241Z,0.00
2023-08-29T02:07:25.393Z,0.00
2023-08-29T02:08:25.567Z,0.00
2023-08-29T02:09:24.811Z,0.00
2023-08-29T02:10:23.966Z,0.00
2023-08-29T02:11:25.092Z,0.00
2023-08-29T02:12:24.329Z,0.00
2023-08-29T02:13:24.538Z,0.00
2023-08-29T02:14:24.703Z,0.02
2023-08-29T02:15:24.784Z,0.00
2023-08-29T02:16:24.082Z,0.02
2023-08-29T02:17:24.237Z,0.00
2023-08-29T02:18:25.357Z,0.00
2023-08-29T02:19:25.483Z,0.00
2023-08-29T02:20:24.758Z,0.00
2023-08-29T02:21:23.885Z,0.00
2023-08-29T02:22:25.012Z,0.00
2023-08-29T02:23:24.313Z,0.00
2023-08-29T02:24:24.402Z,0.00
2023-08-29T02:25:24.632Z,0.00
2023-08-29T02:26:24.678Z,0.02
2023-08-29T02:27:23.888Z,0.00
2023-08-29T02:28:25.031Z,0.00
2023-08-29T02:29:24.290Z,0.00
2023-08-29T02:30:26.271Z,0.00
2023-08-29T02:31:23.805Z,0.00
2023-08-29T02:32:23.938Z,0.00
2023-08-29T02:33:23.965Z,0.00
2023-08-29T02:34:24.106Z,0.02
2023-08-29T02:35:24.272Z,0.00
2023-08-29T02:36:24.418Z,0.02
2023-08-29T02:37:23.568Z,0.00
2023-08-29T02:38:23.739Z,0.02
2023-08-29T02:39:23.914Z,0.02
2023-08-29T02:40:24.070Z,0.00
2023-08-29T02:41:24.253Z,0.00
2023-08-29T02:42:24.419Z,0.02
2023-08-29T02:43:24.506Z,0.00
2023-08-29T02:44:23.781Z,0.00
2023-08-29T02:45:23.934Z,0.02
2023-08-29T02:46:24.157Z,0.00
2023-08-29T02:47:24.280Z,0.00
2023-08-29T02:48:23.424Z,0.02
2023-08-29T02:49:23.568Z,0.00
2023-08-29T02:50:23.761Z,0.00
2023-08-29T02:51:23.913Z,0.02
2023-08-29T02:52:24.069Z,0.00
2023-08-29T02:53:24.204Z,0.00
2023-08-29T02:54:23.324Z,0.00
2023-08-29T02:55:23.521Z,0.02
2023-08-29T02:56:23.698Z,0.00
2023-08-29T02:57:23.877Z,0.00
2023-08-29T02:58:24.005Z,0.02
2023-08-29T02:59:24.203Z,0.02
2023-08-29T03:00:23.328Z,0.02
2023-08-29T03:01:23.464Z,0.00
2023-08-29T03:02:23.674Z,0.00
2023-08-29T03:03:23.901Z,0.02
2023-08-29T03:04:24.001Z,0.00
2023-08-29T03:05:23.220Z,0.00
2023-08-29T03:06:23.359Z,0.00
2023-08-29T03:07:23.534Z,0.02
2023-08-29T03:08:24.671Z,0.00
2023-08-29T03:09:23.875Z,0.00
2023-08-29T03:10:24.103Z,0.02
2023-08-29T03:11:23.220Z,0.02
2023-08-29T03:12:23.398Z,0.00
2023-08-29T03:13:24.600Z,0.02
2023-08-29T03:14:23.737Z,0.00
2023-08-29T03:15:23.936Z,0.00
2023-08-29T03:16:23.130Z,0.02
2023-08-29T03:17:23.364Z,0.00
2023-08-29T03:18:24.388Z,0.02
2023-08-29T03:19:23.601Z,0.00
2023-08-29T03:20:23.782Z,0.02
2023-08-29T03:21:23.890Z,0.00
2023-08-29T03:22:23.133Z,0.02
2023-08-29T03:23:24.280Z,0.02
2023-08-29T03:24:23.513Z,0.00
2023-08-29T03:25:23.706Z,0.00
2023-08-29T03:26:23.816Z,0.00
2023-08-29T03:27:23.021Z,0.00
2023-08-29T03:29:23.393Z,0.02
2023-08-29T03:30:23.577Z,0.02
2023-08-29T03:31:24.723Z,0.00
2023-08-29T03:32:23.022Z,0.02
2023-08-29T03:33:24.280Z,0.00
2023-08-29T03:34:23.313Z,0.02
2023-08-29T03:35:24.437Z,0.02
2023-08-29T03:36:23.717Z,0.00
2023-08-29T03:37:22.821Z,0.02
2023-08-29T03:38:23.032Z,0.01
2023-08-29T03:39:23.249Z,0.02
2023-08-29T03:40:24.427Z,0.02
2023-08-29T03:41:23.687Z,0.02
2023-08-29T03:42:22.839Z,0.02
2023-08-29T03:43:23.506Z,0.02
2023-08-29T03:44:24.139Z,0.00
2023-08-29T03:45:23.342Z,0.00
2023-08-29T03:46:23.586Z,0.05
2023-08-29T03:47:22.712Z,0.00
2023-08-29T03:48:28.934Z,0.00
2023-08-29T03:49:24.090Z,0.00
2023-08-29T03:50:24.230Z,0.00
2023-08-29T03:51:23.459Z,0.02
2023-08-29T03:52:23.597Z,0.02
2023-08-29T03:53:22.811Z,0.02
2023-08-29T03:54:23.051Z,0.02
2023-08-29T03:55:23.224Z,0.02
2023-08-29T03:56:24.384Z,0.02
2023-08-29T03:57:22.597Z,0.05
2023-08-29T03:58:22.821Z,0.05
2023-08-29T03:59:23.032Z,0.05
2023-08-29T04:00:23.196Z,0.03
2023-08-29T04:01:22.415Z,0.10
2023-08-29T04:02:22.575Z,0.02
2023-08-29T04:03:23.858Z,0.05
2023-08-29T04:04:24.279Z,0.03
2023-08-29T04:05:24.183Z,0.06
2023-08-29T04:06:24.326Z,0.08
2023-08-29T04:07:22.555Z,0.04
2023-08-29T04:08:22.655Z,0.24
2023-08-29T04:09:23.834Z,0.13
2023-08-29T04:10:23.064Z,0.20
2023-08-29T04:11:23.215Z,0.31
2023-08-29T04:12:22.420Z,0.32
2023-08-29T04:13:22.645Z,0.21
2023-08-29T04:14:24.737Z,0.33
2023-08-29T04:15:22.936Z,0.27
2023-08-29T04:16:23.248Z,0.52
2023-08-29T04:17:23.262Z,0.48
2023-08-29T04:18:22.497Z,0.47
2023-08-29T04:19:22.694Z,0.47
2023-08-29T04:20:23.862Z,0.59
2023-08-29T04:21:24.091Z,0.85
2023-08-29T04:22:22.263Z,0.78
2023-08-29T04:23:23.426Z,0.74
2023-08-29T04:24:23.608Z,0.88
2023-08-29T04:25:23.757Z,0.89
2023-08-29T04:26:23.930Z,0.93
2023-08-29T04:27:23.069Z,1.01
2023-08-29T04:28:23.244Z,1.51
2023-08-29T04:29:23.463Z,1.35
2023-08-29T04:30:23.620Z,1.64
2023-08-29T04:31:23.902Z,1.90
2023-08-29T04:32:21.984Z,2.02
2023-08-29T04:33:25.632Z,2.47
2023-08-29T04:34:23.325Z,2.65
2023-08-29T04:35:24.109Z,3.12
2023-08-29T04:36:22.910Z,3.40
2023-08-29T04:37:22.905Z,3.66
2023-08-29T04:38:23.006Z,4.16
2023-08-29T04:39:22.310Z,4.65
2023-08-29T04:40:23.383Z,5.44
2023-08-29T04:41:22.599Z,5.52
2023-08-29T04:42:22.790Z,5.88
2023-08-29T04:43:21.938Z,5.99
2023-08-29T04:44:22.106Z,5.89
2023-08-29T04:45:22.303Z,5.44
2023-08-29T04:46:22.415Z,4.82
2023-08-29T04:47:22.596Z,5.46
2023-08-29T04:48:21.798Z,5.47
2023-08-29T04:49:22.834Z,6.24
2023-08-29T04:50:22.068Z,6.95
2023-08-29T04:51:22.265Z,7.80
2023-08-29T04:52:22.485Z,8.67
2023-08-29T04:53:22.632Z,9.47
2023-08-29T04:54:21.790Z,10.39
2023-08-29T04:55:21.934Z,11.42
2023-08-29T04:56:23.071Z,12.25
2023-08-29T04:57:22.327Z,12.94
2023-08-29T04:58:22.566Z,13.60
2023-08-29T04:59:22.684Z,14.01
2023-08-29T05:00:21.884Z,14.52
2023-08-29T05:01:22.141Z,15.46
2023-08-29T05:02:22.344Z,16.74
2023-08-29T05:03:22.475Z,17.79
2023-08-29T05:04:21.602Z,18.46
2023-08-29T05:05:21.782Z,19.29
2023-08-29T05:06:21.938Z,20.69
2023-08-29T05:07:22.945Z,22.31
2023-08-29T05:08:22.360Z,24.05
2023-08-29T05:09:21.506Z,25.62
2023-08-29T05:10:21.685Z,27.15
2023-08-29T05:11:21.886Z,28.79
2023-08-29T05:12:22.967Z,30.55
2023-08-29T05:13:23.129Z,32.48
2023-08-29T05:14:22.359Z,34.33
2023-08-29T05:15:22.457Z,35.99
2023-08-29T05:16:21.722Z,37.18
2023-08-29T05:17:21.856Z,38.21
2023-08-29T05:18:22.039Z,39.60
2023-08-29T05:19:23.163Z,40.30
2023-08-29T05:20:21.338Z,40.14
2023-08-29T05:21:22.475Z,40.17
2023-08-29T05:22:21.702Z,40.12
2023-08-29T05:23:22.833Z,41.07
2023-08-29T05:24:23.002Z,42.51
2023-08-29T05:25:23.235Z,44.13
2023-08-29T05:26:22.360Z,46.33
2023-08-29T05:27:22.618Z,48.90
2023-08-29T05:28:22.762Z,51.44
2023-08-29T05:29:22.112Z,53.79
2023-08-29T05:30:22.185Z,56.10
2023-08-29T05:31:21.403Z,58.15
2023-08-29T05:32:21.557Z,59.25
2023-08-29T05:33:21.783Z,59.79
2023-08-29T05:34:21.917Z,59.76
2023-08-29T05:35:22.095Z,60.39
2023-08-29T05:36:22.218Z,62.08
2023-08-29T05:37:22.398Z,64.13
2023-08-29T05:38:21.591Z,66.49
2023-08-29T05:39:22.763Z,69.65
2023-08-29T05:40:21.946Z,72.26
2023-08-29T05:41:21.104Z,73.57
2023-08-29T05:42:22.296Z,74.83
2023-08-29T05:43:21.548Z,76.13
2023-08-29T05:44:21.623Z,77.31
2023-08-29T05:45:21.814Z,79.00
2023-08-29T05:46:22.945Z,80.68
2023-08-29T05:47:21.140Z,81.42
2023-08-29T05:48:22.246Z,82.09
2023-08-29T05:49:21.481Z,82.40
2023-08-29T05:50:22.603Z,82.24
2023-08-29T05:51:21.871Z,83.73
2023-08-29T05:52:20.989Z,85.36
2023-08-29T05:53:21.171Z,86.94
2023-08-29T05:54:21.335Z,88.78
2023-08-29T05:55:21.526Z,88.67
2023-08-29T05:56:21.713Z,88.25
2023-08-29T05:57:21.068Z,87.06
2023-08-29T05:58:21.016Z,86.93
2023-08-29T05:59:22.164Z,87.58
2023-08-29T06:00:21.409Z,88.86
2023-08-29T06:01:21.554Z,90.39
2023-08-29T06:02:21.700Z,92.53
2023-08-29T06:03:23.184Z,97.93
2023-08-29T06:04:21.965Z,103.90
2023-08-29T06:05:22.195Z,104.87
2023-08-29T06:06:22.406Z,105.85
2023-08-29T06:07:21.563Z,108.82
2023-08-29T06:08:20.910Z,108.53
2023-08-29T06:09:20.873Z,109.56
2023-08-29T06:10:22.012Z,111.72
2023-08-29T06:11:21.255Z,113.77
2023-08-29T06:12:22.353Z,116.60
2023-08-29T06:13:21.561Z,120.05
2023-08-29T06:14:21.655Z,121.74
2023-08-29T06:15:21.864Z,122.58
2023-08-29T06:16:21.134Z,124.15
2023-08-29T06:17:21.298Z,126.54
2023-08-29T06:18:21.462Z,130.25
2023-08-29T06:19:20.652Z,133.26
2023-08-29T06:20:20.824Z,135.31
2023-08-29T06:21:21.019Z,138.61
2023-08-29T06:22:22.210Z,141.49
2023-08-29T06:23:21.364Z,142.97
2023-08-29T06:24:20.499Z,143.35
2023-08-29T06:25:20.655Z,144.10
2023-08-29T06:26:20.880Z,146.90
2023-08-29T06:27:21.040Z,153.31
2023-08-29T06:28:22.196Z,155.91
2023-08-29T06:29:21.374Z,160.08
2023-08-29T06:30:21.674Z,165.04
2023-08-29T06:31:22.714Z,168.29
2023-08-29T06:32:21.847Z,169.93
2023-08-29T06:33:21.017Z,170.52
2023-08-29T06:34:21.173Z,170.05
2023-08-29T06:35:21.302Z,168.94
2023-08-29T06:36:20.524Z,170.78
2023-08-29T06:37:20.701Z,171.85
2023-08-29T06:38:21.848Z,171.22
2023-08-29T06:39:22.014Z,172.78
2023-08-29T06:40:22.177Z,174.05
2023-08-29T06:41:20.348Z,176.54
2023-08-29T06:42:20.547Z,178.67
2023-08-29T06:43:21.801Z,182.39
2023-08-29T06:44:20.855Z,185.12
2023-08-29T06:45:21.017Z,184.20
2023-08-29T06:46:22.218Z,183.74
2023-08-29T06:47:20.339Z,181.82
2023-08-29T06:48:20.485Z,184.43
2023-08-29T06:49:21.686Z,184.45
2023-08-29T06:50:21.792Z,184.44
2023-08-29T06:51:21.931Z,187.98
2023-08-29T06:52:20.122Z,189.23
2023-08-29T06:53:20.266Z,194.70
2023-08-29T06:54:20.464Z,199.42
2023-08-29T06:55:21.636Z,202.30
2023-08-29T06:56:21.814Z,205.56
2023-08-29T06:57:21.035Z,211.07
2023-08-29T06:58:20.161Z,216.84
2023-08-29T06:59:21.274Z,220.36
2023-08-29T07:00:21.472Z,225.03
2023-08-29T07:01:20.683Z,226.80
2023-08-29T07:02:20.839Z,227.92
2023-08-29T07:03:21.048Z,229.50
2023-08-29T07:04:20.973Z,228.80
2023-08-29T07:05:21.338Z,228.07
2023-08-29T07:06:21.511Z,228.45
2023-08-29T07:07:20.713Z,226.32
2023-08-29T07:08:21.837Z,223.75
2023-08-29T07:09:20.970Z,224.22
2023-08-29T07:10:20.210Z,224.61
2023-08-29T07:11:20.349Z,225.76
2023-08-29T07:12:21.785Z,228.46
2023-08-29T07:13:21.623Z,222.54
2023-08-29T07:14:19.809Z,215.83
2023-08-29T07:15:20.932Z,209.88
2023-08-29T07:16:20.215Z,201.54
2023-08-29T07:17:20.359Z,194.32
2023-08-29T07:18:21.474Z,190.50
2023-08-29T07:19:20.659Z,191.11
2023-08-29T07:20:19.799Z,191.56
2023-08-29T07:21:19.987Z,187.26
2023-08-29T07:22:24.126Z,186.90
2023-08-29T07:23:21.298Z,195.24
2023-08-29T07:24:21.507Z,201.68
2023-08-29T07:25:19.652Z,206.68
2023-08-29T07:26:19.840Z,205.35
2023-08-29T07:27:21.020Z,205.27
2023-08-29T07:28:20.224Z,200.99
2023-08-29T07:29:21.312Z,192.75
2023-08-29T07:30:21.522Z,188.59
2023-08-29T07:31:20.828Z,187.73
2023-08-29T07:32:20.256Z,190.05
2023-08-29T07:33:20.828Z,194.02
2023-08-29T07:34:20.233Z,196.28
2023-08-29T07:35:20.408Z,196.74
2023-08-29T07:36:19.572Z,194.94
2023-08-29T07:37:19.828Z,199.72
2023-08-29T07:38:20.011Z,203.46
2023-08-29T07:39:21.145Z,207.66
2023-08-29T07:40:20.384Z,210.44
2023-08-29T07:41:19.513Z,213.21
2023-08-29T07:42:19.700Z,219.98
2023-08-29T07:43:19.946Z,220.70
2023-08-29T07:44:21.054Z,227.21
2023-08-29T07:45:21.242Z,237.94
2023-08-29T07:46:19.505Z,240.99
2023-08-29T07:47:19.596Z,240.87
2023-08-29T07:48:19.793Z,235.13
2023-08-29T07:49:20.969Z,233.64
2023-08-29T07:50:20.204Z,232.79
2023-08-29T07:51:19.341Z,238.89
2023-08-29T07:52:19.443Z,245.05
2023-08-29T07:53:19.626Z,246.61
2023-08-29T07:54:19.814Z,243.67
2023-08-29T07:55:20.036Z,252.42
2023-08-29T07:56:20.164Z,266.65
2023-08-29T07:57:19.289Z,275.28
2023-08-29T07:58:21.429Z,279.92
2023-08-29T07:59:19.668Z,281.86
2023-08-29T08:00:19.875Z,272.82
2023-08-29T08:01:20.139Z,279.21
2023-08-29T08:02:20.236Z,289.97
2023-08-29T08:03:19.361Z,294.66
2023-08-29T08:04:19.514Z,285.15
2023-08-29T08:05:20.746Z,269.34
2023-08-29T08:06:19.897Z,268.15
2023-08-29T08:07:20.069Z,269.16
2023-08-29T08:08:19.217Z,276.98
2023-08-29T08:09:19.395Z,286.48
2023-08-29T08:10:20.624Z,291.23
2023-08-29T08:11:20.803Z,297.46
2023-08-29T08:12:19.943Z,304.14
2023-08-29T08:13:20.082Z,306.18
2023-08-29T08:14:19.195Z,307.64
2023-08-29T08:15:19.376Z,315.49
2023-08-29T08:16:19.556Z,318.68
2023-08-29T08:17:19.717Z,322.84
2023-08-29T08:18:19.902Z,356.85
2023-08-29T08:19:19.685Z,366.11
2023-08-29T08:20:21.178Z,363.16
2023-08-29T08:21:19.322Z,357.34
2023-08-29T08:22:19.476Z,357.93
2023-08-29T08:23:19.664Z,355.26
2023-08-29T08:24:19.807Z,331.69
2023-08-29T08:25:19.976Z,321.41
2023-08-29T08:26:19.116Z,316.41
2023-08-29T08:27:19.240Z,316.32
2023-08-29T08:28:19.411Z,309.28
2023-08-29T08:29:19.609Z,287.43
2023-08-29T08:30:19.742Z,262.19
2023-08-29T08:31:19.948Z,250.65
2023-08-29T08:32:19.023Z,246.82
2023-08-29T08:33:19.212Z,250.51
2023-08-29T08:34:19.318Z,268.39
2023-08-29T08:35:19.489Z,284.88
2023-08-29T08:36:19.651Z,273.71
2023-08-29T08:37:19.781Z,261.38
2023-08-29T08:38:18.872Z,264.29
2023-08-29T08:39:19.030Z,278.19
2023-08-29T08:40:19.188Z,300.74
2023-08-29T08:41:19.344Z,325.63
2023-08-29T08:42:19.580Z,352.14
2023-08-29T08:43:18.652Z,332.56
2023-08-29T08:44:18.797Z,329.48
2023-08-29T08:45:19.033Z,367.69
2023-08-29T08:46:19.100Z,409.26
2023-08-29T08:47:19.281Z,435.79
2023-08-29T08:48:19.444Z,441.88
2023-08-29T08:49:19.572Z,434.78
2023-08-29T08:50:19.709Z,436.59
2023-08-29T08:51:18.892Z,447.15
2023-08-29T08:52:19.025Z,454.72
2023-08-29T08:53:19.162Z,455.26
2023-08-29T08:54:19.355Z,446.56
2023-08-29T08:55:20.572Z,431.69
2023-08-29T08:56:18.601Z,424.24
2023-08-29T08:57:18.753Z,427.90
2023-08-29T08:58:19.939Z,433.73
2023-08-29T08:59:20.034Z,435.91
2023-08-29T09:00:19.308Z,433.14
2023-08-29T09:01:20.495Z,436.41
2023-08-29T09:02:18.948Z,438.44
2023-08-29T09:03:19.739Z,433.30
2023-08-29T09:04:18.994Z,429.88
2023-08-29T09:05:19.042Z,435.57
2023-08-29T09:06:19.232Z,440.07
2023-08-29T09:07:19.368Z,441.87
2023-08-29T09:08:18.465Z,435.98
2023-08-29T09:09:18.608Z,422.93
2023-08-29T09:10:18.782Z,408.76
2023-08-29T09:11:19.895Z,408.98
2023-08-29T09:12:19.146Z,436.07
2023-08-29T09:13:20.145Z,454.53
2023-08-29T09:14:19.266Z,457.27
2023-08-29T09:15:18.593Z,452.83
2023-08-29T09:16:19.623Z,438.93
2023-08-29T09:17:19.431Z,423.08
2023-08-29T09:18:18.895Z,422.59
2023-08-29T09:19:20.016Z,438.58
2023-08-29T09:20:19.124Z,448.84
2023-08-29T09:21:19.430Z,441.51
2023-08-29T09:22:19.574Z,421.75
2023-08-29T09:23:19.670Z,398.65
2023-08-29T09:24:18.794Z,387.75
2023-08-29T09:25:18.965Z,383.79
2023-08-29T09:26:19.144Z,371.90
2023-08-29T09:27:18.259Z,363.11
2023-08-29T09:28:19.435Z,376.95
2023-08-29T09:29:18.612Z,404.09
2023-08-29T09:30:18.761Z,432.33
2023-08-29T09:31:18.972Z,455.54
2023-08-29T09:32:19.102Z,467.88
2023-08-29T09:33:18.246Z,480.13
2023-08-29T09:34:19.472Z,491.89
2023-08-29T09:35:18.643Z,503.08
2023-08-29T09:36:18.829Z,505.37
2023-08-29T09:37:19.085Z,506.19
2023-08-29T09:38:19.161Z,505.09
2023-08-29T09:39:18.403Z,497.37
2023-08-29T09:40:36.245Z,488.04
2023-08-29T09:41:19.827Z,478.53
2023-08-29T09:42:18.931Z,477.30
2023-08-29T09:43:18.214Z,481.76
2023-08-29T09:44:18.417Z,489.02
2023-08-29T09:45:18.552Z,506.60
2023-08-29T09:46:18.763Z,526.06
2023-08-29T09:47:19.891Z,541.55
2023-08-29T09:48:18.115Z,550.74
2023-08-29T09:49:18.215Z,557.51
2023-08-29T09:50:18.448Z,541.20
2023-08-29T09:51:18.632Z,527.11
2023-08-29T09:52:18.739Z,524.10
2023-08-29T09:53:18.526Z,537.15
2023-08-29T09:54:18.058Z,569.37
2023-08-29T09:55:18.191Z,598.90
2023-08-29T09:56:18.408Z,625.86
2023-08-29T09:57:19.483Z,653.03
2023-08-29T09:58:18.677Z,662.38
2023-08-29T09:59:17.812Z,668.18
2023-08-29T10:00:18.990Z,672.66
2023-08-29T10:01:19.179Z,676.57
2023-08-29T10:02:18.307Z,678.75
2023-08-29T10:03:18.381Z,680.94
2023-08-29T10:04:18.564Z,679.23
2023-08-29T10:05:17.661Z,672.02
2023-08-29T10:06:18.372Z,661.52
2023-08-29T10:07:18.997Z,650.27
2023-08-29T10:08:18.118Z,636.50
2023-08-29T10:09:18.283Z,616.93
2023-08-29T10:10:18.429Z,596.72
2023-08-29T10:11:17.550Z,589.89
2023-08-29T10:12:17.752Z,582.79
2023-08-29T10:13:17.848Z,585.05
2023-08-29T10:14:18.006Z,590.72
2023-08-29T10:15:19.081Z,609.65
2023-08-29T10:16:18.321Z,635.07
2023-08-29T10:17:31.200Z,652.08
2023-08-29T10:18:18.598Z,673.46
2023-08-29T10:19:18.601Z,695.50
2023-08-29T10:20:18.829Z,716.39
2023-08-29T10:21:17.943Z,729.97
2023-08-29T10:22:18.120Z,760.14
2023-08-29T10:23:18.192Z,782.73
2023-08-29T10:24:17.315Z,796.22
2023-08-29T10:25:17.463Z,803.17
2023-08-29T10:26:17.557Z,794.45
2023-08-29T10:27:17.666Z,798.55
2023-08-29T10:28:19.037Z,797.68
2023-08-29T10:29:17.895Z,781.65
2023-08-29T10:30:18.064Z,740.51
2023-08-29T10:31:18.171Z,693.75
2023-08-29T10:32:18.259Z,678.85
2023-08-29T10:33:17.383Z,678.97
2023-08-29T10:34:17.487Z,682.90
2023-08-29T10:35:18.706Z,683.04
2023-08-29T10:36:18.745Z,682.30
2023-08-29T10:37:17.873Z,701.23
2023-08-29T10:38:17.999Z,659.56
2023-08-29T10:39:17.078Z,648.81
2023-08-29T10:40:17.213Z,658.66
2023-08-29T10:41:17.667Z,676.26
2023-08-29T10:42:17.516Z,702.05
2023-08-29T10:43:17.639Z,730.26
2023-08-29T10:44:17.784Z,785.01
2023-08-29T10:45:18.908Z,808.33
2023-08-29T10:46:17.102Z,798.37
2023-08-29T10:47:18.299Z,810.17
2023-08-29T10:48:17.403Z,878.65
2023-08-29T10:49:17.485Z,902.53
2023-08-29T10:50:17.648Z,942.38
2023-08-29T10:51:17.813Z,955.86
2023-08-29T10:52:16.910Z,963.97
2023-08-29T10:53:17.643Z,933.94
2023-08-29T10:54:17.226Z,895.67
2023-08-29T10:55:17.342Z,1002.25
2023-08-29T10:56:18.484Z,1020.76
2023-08-29T10:57:18.575Z,1033.21
2023-08-29T10:58:18.714Z,1045.67
2023-08-29T10:59:16.977Z,1070.16
2023-08-29T11:00:16.968Z,1074.11
2023-08-29T11:01:17.181Z,1084.27
2023-08-29T11:02:17.279Z,1125.03
2023-08-29T11:03:17.454Z,1136.58
2023-08-29T11:04:17.587Z,1136.42
2023-08-29T11:05:17.739Z,1142.24
2023-08-29T11:06:17.082Z,1158.17
2023-08-29T11:07:16.893Z,1169.10
2023-08-29T11:08:17.039Z,1140.06
2023-08-29T11:09:17.169Z,962.98
2023-08-29T11:10:17.325Z,1106.14
2023-08-29T11:11:18.158Z,1071.96
2023-08-29T11:12:17.591Z,885.14
2023-08-29T11:13:16.708Z,853.77
2023-08-29T11:14:16.858Z,859.34
2023-08-29T11:15:17.303Z,904.70
2023-08-29T11:16:17.245Z,1147.31
2023-08-29T11:17:17.372Z,1138.02
2023-08-29T11:18:18.426Z,1133.78
2023-08-29T11:19:16.588Z,942.47
2023-08-29T11:20:16.728Z,1236.43
2023-08-29T11:21:18.849Z,1261.35
2023-08-29T11:22:17.023Z,1261.14
2023-08-29T11:23:17.472Z,1248.77
2023-08-29T11:24:17.668Z,1251.07
2023-08-29T11:25:17.483Z,1261.53
2023-08-29T11:26:17.619Z,1265.88
2023-08-29T11:27:17.037Z,1232.61
2023-08-29T11:28:16.885Z,1276.16
2023-08-29T11:29:17.077Z,1274.81
2023-08-29T11:30:28.099Z,1264.42
2023-08-29T11:31:18.322Z,1271.20
2023-08-29T11:32:16.379Z,1260.22
2023-08-29T11:33:16.560Z,1253.57
2023-08-29T11:34:16.702Z,1260.10
2023-08-29T11:35:17.521Z,1262.55
2023-08-29T11:36:17.014Z,1252.79
2023-08-29T11:37:17.114Z,1281.51
2023-08-29T11:38:17.411Z,1263.23
2023-08-29T11:39:16.379Z,1250.99
2023-08-29T11:40:18.794Z,1257.53
2023-08-29T11:41:31.722Z,1251.02
2023-08-29T11:43:14.929Z,1254.31
2023-08-29T11:44:12.486Z,1259.99
2023-08-29T11:44:31.195Z,1269.14
2023-08-29T11:45:45.319Z,1285.79
2023-08-29T11:46:17.267Z,1255.02
2023-08-29T11:47:16.387Z,1235.91
2023-08-29T11:48:16.519Z,1076.56
2023-08-29T11:49:16.686Z,1167.65
2023-08-29T11:50:16.762Z,1161.50
2023-08-29T11:51:17.575Z,1131.40
2023-08-29T11:52:17.984Z,1122.33
2023-08-29T11:53:16.132Z,1058.82
2023-08-29T11:54:17.250Z,912.15
2023-08-29T11:55:17.074Z,1109.99
2023-08-29T11:56:16.495Z,941.45
2023-08-29T11:57:17.278Z,1038.38
2023-08-29T11:58:16.737Z,1075.70
2023-08-29T11:59:17.817Z,1061.02
2023-08-29T12:00:16.976Z,1039.94
2023-08-29T12:01:16.129Z,1031.73
2023-08-29T12:02:19.070Z,1020.86
2023-08-29T12:03:16.630Z,1005.60
2023-08-29T12:04:16.490Z,951.44
2023-08-29T12:05:16.545Z,995.51
2023-08-29T12:06:16.638Z,999.91
2023-08-29T12:07:16.782Z,994.00
2023-08-29T12:08:17.203Z,1000.46
2023-08-29T12:09:16.024Z,995.85
2023-08-29T12:10:16.152Z,984.34
2023-08-29T12:11:16.279Z,960.28
2023-08-29T12:12:16.397Z,907.60
2023-08-29T12:13:16.568Z,957.21
2023-08-29T12:14:17.328Z,968.58
2023-08-29T12:15:24.250Z,969.27
2023-08-29T12:16:16.809Z,969.14
2023-08-29T12:17:15.946Z,970.52
2023-08-29T12:18:16.098Z,975.24
2023-08-29T12:19:16.147Z,978.34
2023-08-29T12:20:16.265Z,981.91
2023-08-29T12:21:16.381Z,987.20
2023-08-29T12:22:16.527Z,990.03
2023-08-29T12:23:16.704Z,987.17
2023-08-29T12:24:15.750Z,985.80
2023-08-29T12:25:15.861Z,990.78
2023-08-29T12:26:16.128Z,1001.45
2023-08-29T12:27:16.140Z,1003.58
2023-08-29T12:28:16.301Z,1007.66
2023-08-29T12:29:17.359Z,1018.07
2023-08-29T12:30:17.456Z,1025.34
2023-08-29T12:31:15.671Z,1023.23
2023-08-29T12:32:15.718Z,1029.29
2023-08-29T12:33:17.430Z,1037.86
2023-08-29T12:34:15.986Z,1049.40
2023-08-29T12:35:16.113Z,1070.88
2023-08-29T12:36:16.235Z,1099.36
2023-08-29T12:37:16.325Z,1135.24
2023-08-29T12:38:16.469Z,1174.09
2023-08-29T12:39:17.336Z,1213.09
2023-08-29T12:40:15.819Z,1290.65
2023-08-29T12:41:15.821Z,1325.29
2023-08-29T12:42:16.864Z,1393.12
2023-08-29T12:43:16.028Z,1452.69
2023-08-29T12:44:16.162Z,1486.17
2023-08-29T12:45:16.359Z,1515.70
2023-08-29T12:46:16.730Z,1552.88
2023-08-29T12:47:15.458Z,1543.99